Aérodrome :
LOGIN :

S'inscrire | Disclaimer

   EN    FR    IT 

 










Légende :    VFR   VFR Marginal   IFR   IFR Intensif   IFR Très Intensif
Visi : 
Plafond : 
>= 8 km
>= 3000ft
5 à 8 km
1000 à 3000 ft
1500m à 5 km
500 à 1000 ft
800 à 1500m
200 à 500 ft
< 800m
< 200 ft
Symboles :   Orages  Brouillard  Fortes neiges  Fortes précipitations  Vent > 20 kt
SIGMETs :   Divers  Orages  Givrage  Turbulence  Onde Orograph.  Cendres Volcan.







- Altitude de l'aérodrome : 39 ft
- Code IATA : ANR


EBAW - Anvers / Antwerpen Deurne

DERNIER METAR :
  • 171520Z 20009KT 9999 -RA FEW011 BKN014 20/18 Q1014 TEMPO 4000 RA BECMG BKN017

METARs EXPIRÉS :
  • 171450Z 20009KT 9999 -RA FEW013 BKN018 19/18 Q1014 TEMPO 4000 RA BKN014
  • 171420Z 21010KT 170V240 9999 -RA BKN016 20/17 Q1014 NOSIG
  • 171350Z 21011KT 180V240 9999 BKN016 20/16 Q1014 NOSIG
  • 171320Z 22009KT 180V250 9999 -RA BKN016 20/17 Q1014 TEMPO 4000 RA BKN013
  • 171250Z 22007KT 9999 -RA BKN014 19/17 Q1015 TEMPO 4000 RA
  • 171220Z 21009KT 6000 -RA BKN012 19/17 Q1014 TEMPO 4000 RA BKN009

TAF TAF EBAW
Valide du 17 à 15h jusqu'au 18 à 00h UTC


171408Z 1715/1724 21007KT 9999 SCT020 BKN030
TEMPO 1715/1717 4000 SHRA BKN014TCU
Pas de NOTAMs connus pour ce terrain.



MET'MAP, la Météo Aéronautique d'un coup d'oeil ! - Copyright ORBIFLY Décembre 2007 - Disclaimer

ORBIFLY MET'MAP TEAM :

Programmation & Développement : Alexandra Zaïnal
Conception & Développement : Baudouin d'Aumeries
Co-Programmation & Développement : Marc-Olivier Méhu
Soutien technique & logistique : Manuel Goepfert

Contact : metmap@orbifly.com




SOURCES & CREDITS :

   NOAA